Time;durP1;ratioP1;P1;durP2;ratioP2;P2;SDS_P1;SDS_P2;PMS_P1;PMS_P2;Temp;Humidity;BMP_temperature;BMP_pressure;BME280_temperature;BME280_humidity;BME280_pressure;Samples;Min_cycle;Max_cycle;Signal;HPM_P1;HPM_P2
2021/03/30 00:01:24;;;;;;;31.48;15.10;;;;;;;10.52;53.61;103018.19;4999659;28;20057;-75
2021/03/30 00:03:51;;;;;;;33.30;14.95;;;;;;;10.53;53.41;103020.72;4987626;28;21064;-76
2021/03/30 00:06:17;;;;;;;33.22;15.30;;;;;;;10.47;53.11;103016.69;4999415;28;20905;-76
2021/03/30 00:08:43;;;;;;;40.80;16.27;;;;;;;10.45;53.78;103012.47;4979808;28;20065;-76
2021/03/30 00:11:10;;;;;;;36.92;16.17;;;;;;;10.42;54.45;103013.47;5013410;28;20421;-76
2021/03/30 00:13:36;;;;;;;36.33;16.23;;;;;;;10.41;53.79;103017.06;5010547;28;20066;-76
2021/03/30 00:16:04;;;;;;;36.00;15.90;;;;;;;10.38;54.09;103022.47;4988728;28;20425;-76
2021/03/30 00:18:30;;;;;;;37.38;16.55;;;;;;;10.33;54.75;103027.16;4982383;28;20461;-76
2021/03/30 00:20:56;;;;;;;35.42;15.50;;;;;;;10.23;55.24;103021.59;5002285;28;20054;-76
2021/03/30 00:23:23;;;;;;;37.10;15.40;;;;;;;10.23;55.25;103024.22;4997806;28;20065;-75
2021/03/30 00:25:49;;;;;;;32.83;15.30;;;;;;;10.20;54.97;103028.78;5005041;28;20501;-76
2021/03/30 00:28:15;;;;;;;34.78;16.13;;;;;;;10.12;54.90;103016.13;4998794;28;20089;-76
2021/03/30 00:30:41;;;;;;;45.22;18.90;;;;;;;10.08;54.40;103018.06;4981630;28;20057;-76
2021/03/30 00:33:07;;;;;;;40.05;16.83;;;;;;;10.10;54.83;103025.84;4984283;28;20108;-76
2021/03/30 00:35:33;;;;;;;34.78;15.10;;;;;;;10.06;54.14;103029.59;4998234;28;20062;-76
2021/03/30 00:37:59;;;;;;;34.83;15.02;;;;;;;10.04;54.50;103020.97;5002896;28;20081;-76
2021/03/30 00:40:25;;;;;;;36.70;16.38;;;;;;;10.03;54.88;103027.13;4999796;28;20116;-76
2021/03/30 00:42:55;;;;;;;36.78;15.50;;;;;;;9.99;54.94;103028.25;4988699;28;20725;-76
2021/03/30 00:45:22;;;;;;;40.72;16.10;;;;;;;9.90;55.75;103030.47;4993226;28;20065;-76
2021/03/30 00:47:49;;;;;;;34.40;15.63;;;;;;;9.90;55.63;103034.88;4989924;28;20132;-75
2021/03/30 00:50:22;;;;;;;40.58;16.25;;;;;;;9.84;55.49;103030.81;5004631;28;20053;-76
2021/03/30 00:52:48;;;;;;;45.30;16.27;;;;;;;9.76;55.73;103016.44;4998116;28;20456;-76
2021/03/30 00:55:15;;;;;;;38.55;16.92;;;;;;;9.72;56.37;103021.03;5000790;28;20097;-76
2021/03/30 00:57:42;;;;;;;33.35;14.52;;;;;;;9.70;56.53;103020.25;5000178;28;20057;-76
2021/03/30 01:00:13;;;;;;;41.50;16.35;;;;;;;9.65;56.25;103017.06;5001627;28;20515;-76
2021/03/30 01:02:41;;;;;;;39.65;16.63;;;;;;;9.62;55.88;103025.09;4995910;28;20057;-76
2021/03/30 01:05:09;;;;;;;37.13;16.23;;;;;;;9.55;56.38;103024.59;4986723;28;20858;-76
2021/03/30 01:07:36;;;;;;;38.92;15.02;;;;;;;9.53;55.56;103023.84;5005477;28;20109;-76
2021/03/30 01:10:20;;;;;;;35.53;17.23;;;;;;;9.49;57.24;103027.56;4999690;28;21015;-76
2021/03/30 01:12:49;;;;;;;36.97;16.80;;;;;;;9.42;57.41;103021.81;5003865;28;20528;-75
2021/03/30 01:15:50;;;;;;;;;;;;;;;9.36;57.13;103024.78;4994158;28;20123;-76
2021/03/30 01:18:27;;;;;;;35.83;16.13;;;;;;;9.32;57.00;103022.41;4916349;29;19927;-76
2021/03/30 01:21:00;;;;;;;37.72;15.98;;;;;;;9.24;56.79;103026.28;4971523;28;20053;-76
2021/03/30 01:23:40;;;;;;;41.17;17.20;;;;;;;9.14;57.53;103017.25;5004828;28;20159;-75
2021/03/30 01:26:45;;;;;;;40.47;17.25;;;;;;;9.10;56.78;103024.41;4998981;28;20470;-75
2021/03/30 01:29:14;;;;;;;40.55;15.90;;;;;;;9.06;57.46;103027.31;4968518;28;20062;-75
2021/03/30 01:31:45;;;;;;;44.10;17.17;;;;;;;8.97;57.13;103017.31;4982772;28;20057;-75
2021/03/30 01:34:13;;;;;;;42.22;16.42;;;;;;;8.91;57.74;103014.09;5000442;28;20062;-75
2021/03/30 01:36:42;;;;;;;38.38;16.88;;;;;;;8.88;57.16;103019.50;5002968;28;20069;-74
2021/03/30 01:39:10;;;;;;;37.97;17.33;;;;;;;8.86;57.63;103026.59;4991370;28;20062;-73
2021/03/30 01:41:39;;;;;;;44.55;16.95;;;;;;;8.81;57.72;103022.53;5002389;28;20152;-73
2021/03/30 01:44:07;;;;;;;39.85;15.85;;;;;;;8.75;57.98;103021.06;5003523;28;20069;-73
2021/03/30 01:46:34;;;;;;;39.72;17.48;;;;;;;8.70;58.39;103023.06;5008417;28;20057;-73
2021/03/30 01:49:01;;;;;;;39.38;16.60;;;;;;;8.65;58.81;103019.88;4985274;28;20127;-73
2021/03/30 01:51:29;;;;;;;33.38;16.30;;;;;;;8.57;58.34;103016.81;5008151;28;20058;-75
2021/03/30 01:53:57;;;;;;;39.75;16.23;;;;;;;8.50;59.21;103014.47;5003429;28;20061;-75
2021/03/30 01:56:23;;;;;;;36.78;16.35;;;;;;;8.45;58.48;103011.28;4987530;28;20065;-75
2021/03/30 01:58:50;;;;;;;36.88;16.55;;;;;;;8.38;59.25;103009.03;4999350;28;20073;-75
2021/03/30 02:01:19;;;;;;;32.75;15.02;;;;;;;8.37;58.55;103020.38;5007968;28;20463;-75
2021/03/30 02:03:46;;;;;;;47.10;18.65;;;;;;;8.35;58.42;103027.47;5001419;28;20563;-75
2021/03/30 02:06:13;;;;;;;39.67;17.50;;;;;;;8.30;59.25;103025.09;4996583;28;20073;-76
2021/03/30 02:08:40;;;;;;;43.63;17.08;;;;;;;8.28;58.71;103026.94;5005397;28;20054;-75
2021/03/30 02:11:06;;;;;;;39.42;17.30;;;;;;;8.22;59.08;103022.88;4996899;28;20061;-75
2021/03/30 02:13:40;;;;;;;36.35;16.27;;;;;;;8.14;58.96;103009.34;5005386;28;20061;-76
2021/03/30 02:16:13;;;;;;;39.03;17.35;;;;;;;8.14;59.66;103022.41;5002475;28;20172;-76
2021/03/30 02:18:45;;;;;;;36.83;16.58;;;;;;;8.04;59.83;103019.41;5008654;28;20062;-76
2021/03/30 02:21:18;;;;;;;36.75;16.45;;;;;;;8.03;59.62;103022.94;4974437;28;20085;-75
2021/03/30 02:23:46;;;;;;;44.53;16.77;;;;;;;8.02;59.97;103028.25;4978392;28;20062;-75
2021/03/30 02:26:15;;;;;;;39.60;17.48;;;;;;;7.95;59.85;103011.16;4972749;28;20112;-76
2021/03/30 02:28:47;;;;;;;40.47;16.50;;;;;;;7.90;59.54;103012.25;5005152;28;20046;-76
2021/03/30 02:31:17;;;;;;;46.88;18.23;;;;;;;7.89;60.44;103014.94;5007556;28;20049;-76
2021/03/30 02:33:48;;;;;;;42.78;17.70;;;;;;;7.84;60.11;103019.53;5001788;28;20054;-76
2021/03/30 02:36:18;;;;;;;41.17;17.77;;;;;;;7.77;60.72;103020.75;4988756;28;20550;-76
2021/03/30 02:38:50;;;;;;;38.97;17.05;;;;;;;7.75;60.60;103025.22;4981724;28;20827;-76
2021/03/30 02:41:16;;;;;;;38.88;17.63;;;;;;;7.71;59.76;103025.34;5010870;28;20069;-76
2021/03/30 02:43:44;;;;;;;40.92;16.90;;;;;;;7.66;61.19;103018.66;4998911;28;20062;-75
2021/03/30 02:46:11;;;;;;;41.97;16.35;;;;;;;7.61;60.19;103010.19;4990643;28;20394;-76
2021/03/30 02:48:39;;;;;;;41.50;17.35;;;;;;;7.62;60.88;103019.72;5007732;28;20058;-75
2021/03/30 02:51:06;;;;;;;41.97;17.40;;;;;;;7.55;60.83;103016.56;5000550;28;20836;-76
2021/03/30 02:53:33;;;;;;;41.97;17.98;;;;;;;7.55;61.14;103021.78;4988427;28;20066;-76
2021/03/30 02:56:02;;;;;;;39.53;16.98;;;;;;;7.49;61.82;103025.53;5001685;28;20061;-75
2021/03/30 02:58:28;;;;;;;42.17;17.98;;;;;;;7.33;61.68;103003.66;5007494;28;20057;-76
2021/03/30 03:00:54;;;;;;;42.50;18.77;;;;;;;7.42;61.35;103023.28;5002299;28;20444;-75
2021/03/30 03:03:22;;;;;;;44.10;18.60;;;;;;;7.40;61.67;103025.13;5006845;28;20735;-75
2021/03/30 03:05:48;;;;;;;44.47;18.13;;;;;;;7.37;61.08;103017.41;4996532;28;20065;-75
2021/03/30 03:08:15;;;;;;;43.90;17.30;;;;;;;7.30;61.44;103022.91;4997536;28;20303;-75
2021/03/30 03:10:42;;;;;;;44.83;18.17;;;;;;;7.28;61.33;103016.94;4989287;28;20102;-75
2021/03/30 03:13:17;;;;;;;40.72;19.00;;;;;;;7.24;61.02;103022.38;5001134;28;20071;-76
2021/03/30 03:15:44;;;;;;;45.55;18.08;;;;;;;7.12;61.16;103003.75;4993864;28;20058;-75
2021/03/30 03:18:12;;;;;;;45.95;19.80;;;;;;;7.08;61.90;103017.84;5000407;28;20057;-74
2021/03/30 03:20:39;;;;;;;52.08;18.77;;;;;;;7.06;62.04;103017.06;5001481;28;20049;-75
2021/03/30 03:23:06;;;;;;;46.13;18.70;;;;;;;7.08;61.61;103017.84;5000703;28;20512;-75
2021/03/30 03:25:34;;;;;;;46.90;19.50;;;;;;;7.00;62.86;103014.75;5006929;28;20057;-75
2021/03/30 03:28:01;;;;;;;54.83;21.92;;;;;;;6.97;61.92;103012.25;5007473;28;20057;-75
2021/03/30 03:30:28;;;;;;;70.55;29.95;;;;;;;7.00;62.35;103025.19;5001194;28;20508;-75
2021/03/30 03:33:04;;;;;;;54.33;23.58;;;;;;;6.99;62.32;103017.41;5002977;28;20147;-76
2021/03/30 03:35:30;;;;;;;54.85;22.27;;;;;;;6.95;62.67;103024.53;4985488;28;20069;-75
2021/03/30 03:37:56;;;;;;;55.05;22.00;;;;;;;6.86;62.14;103014.50;5006917;28;20588;-75
2021/03/30 03:40:23;;;;;;;52.20;21.05;;;;;;;6.91;62.46;103034.25;5000785;28;20061;-75
2021/03/30 03:42:49;;;;;;;51.28;18.77;;;;;;;6.75;61.72;103016.75;5005970;28;20065;-74
2021/03/30 03:45:15;;;;;;;46.38;18.98;;;;;;;6.79;62.57;103024.38;5000314;28;20560;-74
2021/03/30 03:47:41;;;;;;;52.20;19.05;;;;;;;6.79;63.01;103026.97;4999510;28;20497;-74
2021/03/30 03:50:07;;;;;;;46.35;20.25;;;;;;;6.69;63.01;103031.75;5006755;28;20575;-75
2021/03/30 03:52:37;;;;;;;42.80;18.40;;;;;;;6.66;63.14;103029.25;5000575;28;20473;-75
2021/03/30 03:55:04;;;;;;;41.75;18.50;;;;;;;6.61;63.28;103033.84;5006036;28;20068;-75
2021/03/30 03:57:42;;;;;;;48.60;18.00;;;;;;;6.62;62.82;103024.25;4982843;28;20089;-75
2021/03/30 04:00:09;;;;;;;48.85;20.45;;;;;;;6.53;62.89;103033.34;4991103;28;20053;-75
2021/03/30 04:02:45;;;;;;;52.40;20.45;;;;;;;6.54;63.91;103035.00;4979726;28;20084;-74
2021/03/30 04:05:15;;;;;;;37.63;18.42;;;;;;;6.57;64.31;103031.44;5007548;28;20077;-75
2021/03/30 04:07:48;;;;;;;44.70;18.55;;;;;;;6.59;63.79;103042.66;5000084;28;20457;-75
2021/03/30 04:10:26;;;;;;;45.92;19.55;;;;;;;6.60;63.89;103039.97;5012393;28;20053;-74
2021/03/30 04:12:52;;;;;;;46.35;17.77;;;;;;;6.64;63.31;103036.31;5010144;28;20081;-73
2021/03/30 04:15:21;;;;;;;43.40;19.70;;;;;;;6.58;64.09;103035.72;4994684;28;20068;-74
2021/03/30 04:17:48;;;;;;;44.88;18.92;;;;;;;6.56;63.99;103042.78;5004773;28;20054;-73
2021/03/30 04:20:15;;;;;;;44.47;18.83;;;;;;;6.53;63.80;103046.38;4983388;28;20062;-75
2021/03/30 04:22:53;;;;;;;42.33;17.90;;;;;;;6.49;63.33;103042.19;4999265;28;20572;-75
2021/03/30 04:25:20;;;;;;;49.58;19.45;;;;;;;6.48;62.86;103045.72;4984223;28;20058;-75
2021/03/30 04:27:46;;;;;;;37.15;18.25;;;;;;;6.42;64.53;103052.03;5004592;28;20057;-75
2021/03/30 04:30:13;;;;;;;40.50;17.27;;;;;;;6.41;63.73;103054.69;4980172;28;20128;-75
2021/03/30 04:32:39;;;;;;;39.17;17.13;;;;;;;6.34;63.80;103051.50;5006490;28;20494;-75
2021/03/30 04:35:06;;;;;;;38.20;18.20;;;;;;;6.30;63.11;103056.00;4988004;28;20061;-75
2021/03/30 04:37:32;;;;;;;45.58;19.98;;;;;;;6.26;63.96;103058.81;5000147;28;20061;-75
2021/03/30 04:39:58;;;;;;;47.97;18.55;;;;;;;6.25;63.57;103055.34;4988476;28;20057;-75
2021/03/30 04:42:24;;;;;;;51.95;20.52;;;;;;;6.23;64.20;103062.38;4995708;28;20072;-75
2021/03/30 04:44:50;;;;;;;56.50;20.77;;;;;;;6.17;64.23;103054.81;4984073;28;20136;-75
2021/03/30 04:47:18;;;;;;;52.92;19.25;;;;;;;6.14;64.40;103052.34;5000284;28;20057;-75
2021/03/30 04:49:44;;;;;;;48.17;20.05;;;;;;;6.20;64.55;103069.47;4987563;28;20052;-75
2021/03/30 04:52:10;;;;;;;49.50;21.00;;;;;;;6.20;64.77;103066.88;5006177;28;20061;-75
2021/03/30 04:54:36;;;;;;;54.60;21.40;;;;;;;6.15;65.08;103067.03;4986950;28;20053;-75
2021/03/30 04:57:03;;;;;;;50.60;21.15;;;;;;;6.18;64.50;103072.16;4993562;28;20080;-75
2021/03/30 04:59:29;;;;;;;59.03;20.75;;;;;;;6.15;64.91;103074.88;4991107;28;20054;-75
2021/03/30 05:01:55;;;;;;;46.40;19.88;;;;;;;6.07;64.04;103077.78;4988245;28;20138;-75
2021/03/30 05:04:21;;;;;;;49.50;20.23;;;;;;;6.07;63.75;103071.72;4997431;28;20092;-75
2021/03/30 05:06:47;;;;;;;45.55;19.92;;;;;;;6.05;64.61;103081.38;5005788;28;20461;-75
2021/03/30 05:09:13;;;;;;;44.95;19.27;;;;;;;6.07;63.78;103079.53;4997080;28;20046;-75
2021/03/30 05:11:39;;;;;;;50.47;20.52;;;;;;;6.08;63.63;103081.25;4999474;28;20049;-75
2021/03/30 05:14:05;;;;;;;51.03;20.52;;;;;;;6.09;65.67;103088.97;5004451;28;20217;-75
2021/03/30 05:16:31;;;;;;;53.97;21.23;;;;;;;6.09;65.19;103082.94;4999254;28;20175;-74
2021/03/30 05:18:57;;;;;;;45.80;19.10;;;;;;;6.03;64.56;103083.19;5005461;28;20054;-73
2021/03/30 05:21:23;;;;;;;48.50;20.08;;;;;;;6.06;63.80;103093.50;4980482;28;20061;-74
2021/03/30 05:23:49;;;;;;;57.17;20.55;;;;;;;6.05;64.48;103094.38;5001271;28;20054;-74
2021/03/30 05:26:15;;;;;;;51.33;20.23;;;;;;;5.99;65.00;103098.09;4977609;28;20063;-74
2021/03/30 05:28:41;;;;;;;52.13;21.08;;;;;;;5.98;64.51;103096.41;5000867;28;20045;-73
2021/03/30 05:31:08;;;;;;;67.38;27.83;;;;;;;5.97;64.10;103101.66;4993630;28;20494;-73
2021/03/30 05:33:34;;;;;;;71.95;28.30;;;;;;;5.94;63.91;103100.84;4996908;28;20104;-73
2021/03/30 05:36:00;;;;;;;68.95;26.48;;;;;;;5.91;64.44;103106.16;5005037;28;20054;-74
2021/03/30 05:38:26;;;;;;;68.45;26.30;;;;;;;5.91;63.97;103098.34;4976872;28;20105;-73
2021/03/30 05:40:55;;;;;;;58.20;23.48;;;;;;;5.90;64.57;103098.41;4983576;28;20142;-73
2021/03/30 05:43:21;;;;;;;59.35;23.67;;;;;;;5.89;64.79;103099.34;4998175;28;20175;-73
2021/03/30 05:45:47;;;;;;;52.25;22.83;;;;;;;5.83;65.19;103102.19;4986397;28;20054;-73
2021/03/30 05:48:16;;;;;;;54.97;22.48;;;;;;;5.87;66.13;103106.34;5000435;28;20341;-73
2021/03/30 05:50:43;;;;;;;54.50;21.40;;;;;;;5.87;64.99;103107.19;5004528;28;20062;-73
2021/03/30 05:53:15;;;;;;;51.85;21.88;;;;;;;5.89;65.12;103107.97;4989206;28;20464;-73
2021/03/30 05:55:44;;;;;;;52.83;20.50;;;;;;;5.91;65.54;103115.75;4990987;28;20057;-73
2021/03/30 05:58:11;;;;;;;67.63;25.63;;;;;;;5.91;65.85;103113.13;4973758;28;20505;-73
2021/03/30 06:00:41;;;;;;;85.40;28.73;;;;;;;5.90;65.54;103109.69;4999272;28;20078;-73
2021/03/30 06:03:10;;;;;;;68.82;27.02;;;;;;;5.94;65.67;103118.25;5004108;28;20161;-73
2021/03/30 06:05:36;;;;;;;68.25;27.83;;;;;;;5.96;65.37;103112.97;4995607;28;21012;-73
2021/03/30 06:08:04;;;;;;;59.15;25.42;;;;;;;5.99;65.52;103112.88;5002338;28;20089;-73
2021/03/30 06:10:32;;;;;;;65.88;25.50;;;;;;;6.04;66.27;103119.59;4986242;28;20062;-74
2021/03/30 06:13:00;;;;;;;61.15;24.95;;;;;;;6.08;65.15;103117.72;4997513;28;20100;-73
2021/03/30 06:15:35;;;;;;;55.53;23.52;;;;;;;6.12;66.18;103124.53;5003889;28;20054;-75
2021/03/30 06:18:20;;;;;;;55.45;21.85;;;;;;;6.16;66.62;103126.09;4976541;28;20061;-75
2021/03/30 06:20:47;;;;;;;54.00;21.90;;;;;;;6.15;65.50;103121.78;4983058;28;20058;-75
2021/03/30 06:23:25;;;;;;;56.30;23.13;;;;;;;6.19;67.03;103128.56;4997111;28;20077;-73
2021/03/30 06:25:54;;;;;;;62.85;24.80;;;;;;;6.22;66.85;103123.22;4990503;28;20193;-74
2021/03/30 06:28:27;;;;;;;49.58;22.40;;;;;;;6.31;66.64;103129.81;5001029;28;20516;-76
2021/03/30 06:30:58;;;;;;;56.90;23.98;;;;;;;6.36;68.41;103130.50;4990814;28;20505;-72
2021/03/30 06:33:25;;;;;;;56.50;22.30;;;;;;;6.40;67.70;103136.44;4995564;28;20061;-72
2021/03/30 06:35:52;;;;;;;61.78;23.75;;;;;;;6.47;68.47;103135.28;5001731;28;20058;-75
2021/03/30 06:38:18;;;;;;;56.97;23.83;;;;;;;6.54;67.65;103131.50;5007267;28;20843;-75
2021/03/30 06:40:46;;;;;;;57.97;22.90;;;;;;;6.59;67.23;103131.31;4984179;28;20065;-74
2021/03/30 06:46:10;;;;;;;60.90;25.20;;;;;;;6.81;67.64;103126.88;5000093;28;20050;-75
2021/03/30 06:48:40;;;;;;;56.63;22.20;;;;;;;6.90;67.70;103128.28;4992558;28;20365;-76
2021/03/30 06:51:20;;;;;;;58.50;25.02;;;;;;;6.98;66.67;103133.13;4980322;28;20491;-76
2021/03/30 06:53:46;;;;;;;58.80;25.45;;;;;;;7.05;67.04;103130.19;5007266;28;20474;-76
2021/03/30 06:56:13;;;;;;;61.55;25.25;;;;;;;7.17;67.34;103133.19;5001195;28;20425;-75
2021/03/30 06:58:59;;;;;;;68.85;26.13;;;;;;;7.23;67.29;103133.78;5007677;28;20068;-76
2021/03/30 07:01:27;;;;;;;74.90;32.50;;;;;;;7.33;67.53;103140.28;5003900;28;20590;-76
2021/03/30 07:03:54;;;;;;;73.00;29.55;;;;;;;7.43;66.90;103142.47;4986101;28;20120;-76
2021/03/30 07:06:23;;;;;;;74.85;28.95;;;;;;;7.52;67.53;103140.28;5006382;28;20093;-76
2021/03/30 07:08:50;;;;;;;73.30;29.48;;;;;;;7.56;67.28;103146.22;4983779;28;20112;-76
2021/03/30 07:11:17;;;;;;;67.85;28.23;;;;;;;7.58;67.32;103136.53;5006294;28;20058;-75
2021/03/30 07:13:43;;;;;;;75.43;29.10;;;;;;;7.71;67.08;103137.69;5000955;28;20771;-74
2021/03/30 07:16:18;;;;;;;73.25;29.83;;;;;;;7.82;66.74;103147.66;5003635;28;20062;-74
2021/03/30 07:18:49;;;;;;;81.63;29.98;;;;;;;7.92;66.77;103145.47;4985601;28;20875;-76
2021/03/30 07:21:23;;;;;;;79.70;29.05;;;;;;;7.95;66.38;103141.84;4989783;28;20053;-74
2021/03/30 07:23:55;;;;;;;74.47;27.10;;;;;;;8.06;66.52;103142.19;4975767;28;20076;-75
2021/03/30 07:26:29;;;;;;;80.70;29.27;;;;;;;8.14;66.27;103142.66;4982052;28;20096;-75
2021/03/30 07:29:05;;;;;;;71.57;26.17;;;;;;;8.26;66.08;103136.00;5007735;28;20053;-75
2021/03/30 07:31:41;;;;;;;75.18;28.65;;;;;;;8.35;65.45;103139.91;4977204;28;20399;-75
2021/03/30 07:34:19;;;;;;;93.80;30.48;;;;;;;8.41;66.13;103134.38;5006271;28;20160;-75
2021/03/30 07:36:54;;;;;;;79.15;29.23;;;;;;;8.49;65.81;103142.75;4983284;28;20452;-74
2021/03/30 07:39:22;;;;;;;90.80;30.90;;;;;;;8.63;65.60;103142.06;5006422;28;20053;-75
2021/03/30 07:41:48;;;;;;;82.18;28.92;;;;;;;8.72;65.26;103149.44;5000639;28;20548;-75
2021/03/30 07:44:19;;;;;;;80.13;29.45;;;;;;;8.81;65.47;103150.75;5001952;28;20062;-74
2021/03/30 07:46:45;;;;;;;75.57;28.70;;;;;;;8.88;64.88;103145.13;4988379;28;20062;-74
2021/03/30 07:49:12;;;;;;;93.07;30.50;;;;;;;9.07;64.91;103154.63;4999843;28;20478;-75
2021/03/30 07:51:43;;;;;;;96.22;31.08;;;;;;;9.20;64.68;103154.88;5006653;28;20084;-75
2021/03/30 07:54:15;;;;;;;92.78;31.30;;;;;;;9.34;64.21;103151.53;4982436;28;20062;-75
2021/03/30 07:56:47;;;;;;;88.28;30.50;;;;;;;9.44;64.39;103164.03;4996144;28;20058;-75
2021/03/30 07:59:41;;;;;;;90.80;31.33;;;;;;;9.56;64.50;103159.06;4980625;28;20062;-75
2021/03/30 08:02:09;;;;;;;91.80;30.15;;;;;;;9.71;64.34;103145.16;4998215;28;20054;-75
2021/03/30 08:04:35;;;;;;;86.05;30.42;;;;;;;9.84;64.03;103147.91;5000423;28;20136;-76
2021/03/30 08:07:02;;;;;;;97.25;33.80;;;;;;;10.04;63.64;103154.69;4991592;28;20482;-76
2021/03/30 08:09:28;;;;;;;93.80;31.95;;;;;;;10.08;63.56;103148.34;4983909;28;20136;-75
2021/03/30 08:11:58;;;;;;;102.53;31.42;;;;;;;10.20;63.68;103150.28;5001489;28;20132;-75
2021/03/30 08:14:33;;;;;;;91.15;30.17;;;;;;;10.36;63.30;103152.91;4986264;28;20135;-75
2021/03/30 08:17:07;;;;;;;90.47;30.25;;;;;;;10.52;63.53;103150.22;4970167;28;20112;-75
2021/03/30 08:19:33;;;;;;;97.80;32.20;;;;;;;10.67;63.37;103156.38;5005662;28;20084;-75
2021/03/30 08:22:06;;;;;;;99.18;33.00;;;;;;;10.87;62.20;103150.78;4998705;28;20058;-75
2021/03/30 08:24:44;;;;;;;98.43;32.08;;;;;;;11.05;61.68;103158.50;4987352;28;20084;-76
2021/03/30 08:27:30;;;;;;;90.45;30.92;;;;;;;11.21;61.60;103150.53;4994464;28;20108;-76
2021/03/30 08:30:00;;;;;;;99.57;32.78;;;;;;;11.30;61.61;103155.22;5004556;28;20500;-75
2021/03/30 08:32:28;;;;;;;94.10;31.45;;;;;;;11.47;61.91;103155.03;4981751;28;20069;-75
2021/03/30 08:34:54;;;;;;;119.10;34.83;;;;;;;11.72;60.34;103153.53;5005180;28;20421;-76
2021/03/30 08:37:22;;;;;;;88.60;29.65;;;;;;;11.84;60.80;103155.38;4999013;28;20061;-75
2021/03/30 08:39:49;;;;;;;87.75;29.63;;;;;;;12.13;59.50;103155.28;4996338;28;20054;-76
2021/03/30 08:42:16;;;;;;;80.68;29.77;;;;;;;12.34;58.44;103154.84;5001501;28;20102;-76
2021/03/30 08:45:05;;;;;;;97.07;32.08;;;;;;;12.57;58.40;103162.06;4981472;28;20073;-75
2021/03/30 08:47:35;;;;;;;91.07;31.05;;;;;;;12.85;57.43;103168.09;5004267;28;20152;-76
2021/03/30 08:50:14;;;;;;;93.70;33.20;;;;;;;13.03;56.79;103166.88;4991895;28;20049;-76
2021/03/30 08:52:41;;;;;;;90.30;30.00;;;;;;;13.22;57.12;103169.06;5004935;28;20788;-76
2021/03/30 08:55:09;;;;;;;96.18;33.25;;;;;;;13.42;56.97;103172.97;4995915;28;20425;-76
2021/03/30 08:57:37;;;;;;;85.83;30.90;;;;;;;13.53;57.07;103172.22;4984568;28;20065;-76
2021/03/30 09:00:05;;;;;;;;;;;;;;;13.73;56.13;103170.78;4987747;28;20734;-76
2021/03/30 09:02:31;;;;;;;90.63;32.00;;;;;;;13.90;54.85;103166.97;4998785;28;20647;-76
2021/03/30 09:04:57;;;;;;;82.63;30.77;;;;;;;14.05;54.02;103172.91;5004702;28;20056;-76
2021/03/30 09:07:23;;;;;;;80.40;28.08;;;;;;;14.21;54.74;103170.84;4997644;28;20116;-76
2021/03/30 09:09:49;;;;;;;77.55;31.23;;;;;;;14.45;53.53;103162.06;4997028;28;20062;-77
2021/03/30 09:12:16;;;;;;;84.97;30.95;;;;;;;14.56;52.49;103172.69;4971351;28;20061;-77
2021/03/30 09:14:43;;;;;;;83.30;29.67;;;;;;;14.72;52.62;103169.72;4998398;28;20543;-77
2021/03/30 09:17:12;;;;;;;82.63;31.10;;;;;;;14.87;52.33;103165.06;5003202;28;20078;-77
2021/03/30 09:19:51;;;;;;;86.20;30.15;;;;;;;15.01;51.58;103167.50;5005107;28;20046;-77
2021/03/30 09:27:43;;;;;;;76.95;30.20;;;;;;;15.57;50.62;103169.28;4996558;28;20054;-77
2021/03/30 09:30:10;;;;;;;80.25;30.30;;;;;;;15.72;50.02;103163.72;4985845;28;20194;-77
2021/03/30 09:32:39;;;;;;;76.27;29.83;;;;;;;15.92;48.09;103163.00;5005791;28;20061;-77
2021/03/30 09:35:17;;;;;;;72.18;27.67;;;;;;;16.16;48.61;103156.69;4994499;28;20476;-76
2021/03/30 09:37:48;;;;;;;77.72;26.98;;;;;;;16.30;46.46;103145.78;5001753;28;20497;-77
2021/03/30 09:40:17;;;;;;;74.75;27.80;;;;;;;16.50;46.23;103152.03;4998739;28;20476;-77
2021/03/30 09:42:50;;;;;;;67.22;25.73;;;;;;;16.59;42.28;103150.44;5004621;28;20149;-76
2021/03/30 09:45:23;;;;;;;77.50;26.08;;;;;;;16.80;43.14;103153.09;4991527;28;20382;-76
2021/03/30 09:47:50;;;;;;;81.35;29.95;;;;;;;16.85;43.13;103136.81;4989575;28;20062;-77
2021/03/30 09:50:19;;;;;;;80.57;27.35;;;;;;;17.17;42.16;103161.41;5000876;28;20057;-76
2021/03/30 09:52:46;;;;;;;70.88;25.75;;;;;;;17.20;39.04;103153.16;4994829;28;20132;-76
2021/03/30 09:55:12;;;;;;;75.32;24.48;;;;;;;17.51;39.15;103157.63;5005026;28;20076;-76
2021/03/30 09:57:38;;;;;;;61.10;21.88;;;;;;;17.58;36.53;103148.97;4996299;28;20062;-73
2021/03/30 10:00:05;;;;;;;41.45;16.70;;;;;;;17.79;35.45;103162.13;4994772;28;20050;-76
2021/03/30 10:02:34;;;;;;;55.10;21.48;;;;;;;17.89;35.82;103158.69;5001360;28;20053;-76
2021/03/30 10:05:05;;;;;;;56.80;21.98;;;;;;;18.00;35.91;103155.09;4995270;28;20138;-74
2021/03/30 10:07:39;;;;;;;56.58;20.55;;;;;;;18.09;35.06;103163.06;4999597;28;20062;-77
2021/03/30 10:10:11;;;;;;;66.05;21.55;;;;;;;18.38;35.64;103160.41;5008053;28;20449;-77
2021/03/30 10:12:48;;;;;;;60.97;21.70;;;;;;;18.62;34.70;103163.56;5008849;28;20092;-76
2021/03/30 10:15:34;;;;;;;67.38;23.90;;;;;;;18.72;35.29;103153.78;4976300;28;20061;-76
2021/03/30 10:18:04;;;;;;;68.63;24.67;;;;;;;18.99;36.52;103154.81;5004436;28;20058;-76
2021/03/30 10:20:35;;;;;;;72.15;25.88;;;;;;;19.06;35.95;103156.75;4996649;28;20064;-76
2021/03/30 10:23:01;;;;;;;59.45;24.42;;;;;;;19.09;33.74;103144.97;5007630;28;20131;-76
2021/03/30 10:25:30;;;;;;;60.28;22.05;;;;;;;19.23;33.12;103144.53;5000751;28;20053;-76
2021/03/30 10:27:57;;;;;;;;;;;;;;;19.45;33.82;103142.44;5008895;28;20481;-75
2021/03/30 10:30:43;;;;;;;57.40;22.55;;;;;;;19.77;33.76;103136.66;5002472;28;20352;-74
2021/03/30 10:33:12;;;;;;;47.65;18.38;;;;;;;20.06;32.40;103136.44;4984924;28;20058;-74
2021/03/30 10:35:39;;;;;;;59.25;20.77;;;;;;;20.37;33.73;103137.84;5008044;28;20057;-75
2021/03/30 10:38:05;;;;;;;54.88;23.02;;;;;;;20.46;31.99;103123.56;5001630;28;20057;-75
2021/03/30 10:40:34;;;;;;;68.70;26.55;;;;;;;20.27;31.83;103128.13;4991364;28;20116;-74
2021/03/30 10:43:23;;;;;;;65.93;26.15;;;;;;;20.28;33.14;103129.78;5001734;28;20501;-75
2021/03/30 10:45:52;;;;;;;71.97;27.67;;;;;;;20.40;32.84;103125.03;5004478;28;20508;-75
2021/03/30 10:48:19;;;;;;;60.45;25.13;;;;;;;20.62;31.61;103131.72;4980859;28;20053;-75
2021/03/30 10:50:45;;;;;;;54.88;21.83;;;;;;;20.72;31.76;103127.13;5008210;28;20061;-75
2021/03/30 10:53:12;;;;;;;58.90;24.25;;;;;;;20.79;31.13;103132.66;5002034;28;20488;-75
2021/03/30 10:55:40;;;;;;;54.53;22.48;;;;;;;20.94;31.42;103119.56;5008504;28;20066;-75
2021/03/30 10:58:11;;;;;;;54.65;23.08;;;;;;;21.29;31.64;103120.38;5008276;28;20057;-75
2021/03/30 11:00:40;;;;;;;53.60;22.48;;;;;;;21.21;30.57;103106.97;4997257;28;20085;-75
2021/03/30 11:03:16;;;;;;;57.35;23.08;;;;;;;21.57;30.74;103120.16;5006281;28;20049;-75
2021/03/30 11:05:42;;;;;;;54.80;23.27;;;;;;;21.67;31.37;103113.66;5011039;28;20061;-74
2021/03/30 11:08:08;;;;;;;59.22;24.10;;;;;;;21.68;30.28;103112.66;5008378;28;20404;-74
2021/03/30 11:10:35;;;;;;;54.60;23.55;;;;;;;21.80;29.66;103120.38;4984288;28;20073;-75
2021/03/30 11:13:01;;;;;;;59.63;24.20;;;;;;;21.61;29.76;103110.81;4995207;28;20061;-75
2021/03/30 11:15:27;;;;;;;58.97;22.65;;;;;;;21.94;30.36;103108.19;4982495;28;20058;-76
2021/03/30 11:17:54;;;;;;;58.13;24.15;;;;;;;21.97;29.41;103107.81;5007552;28;20499;-75
2021/03/30 11:20:20;;;;;;;59.13;24.10;;;;;;;22.24;29.50;103110.19;4989359;28;20057;-76
2021/03/30 11:22:49;;;;;;;67.57;25.27;;;;;;;22.30;28.62;103109.50;4991301;28;20568;-76
2021/03/30 11:25:16;;;;;;;59.58;24.45;;;;;;;22.02;27.68;103108.19;5004320;28;20054;-75
2021/03/30 11:27:46;;;;;;;53.47;22.58;;;;;;;21.99;26.75;103103.16;4997712;28;20061;-75
2021/03/30 11:30:17;;;;;;;63.25;26.10;;;;;;;22.17;28.58;103102.97;5004313;28;20058;-76
2021/03/30 11:32:47;;;;;;;63.60;26.30;;;;;;;22.36;28.27;103099.16;4964896;28;20061;-76